sensor_id;sensor_type;location;lat;lon;timestamp;temperature;humidity
18773;DHT22;9515;50.810;4.418;2023-01-16T00:01:53;6.50;99.90
18773;DHT22;9515;50.810;4.418;2023-01-16T00:04:20;6.60;99.90
18773;DHT22;9515;50.810;4.418;2023-01-16T00:06:46;6.50;99.90
18773;DHT22;9515;50.810;4.418;2023-01-16T00:09:12;6.30;99.90
18773;DHT22;9515;50.810;4.418;2023-01-16T00:11:38;6.50;99.90
18773;DHT22;9515;50.810;4.418;2023-01-16T00:14:03;6.70;99.90
18773;DHT22;9515;50.810;4.418;2023-01-16T00:16:29;6.70;99.90
18773;DHT22;9515;50.810;4.418;2023-01-16T00:18:55;6.50;99.90
18773;DHT22;9515;50.810;4.418;2023-01-16T00:21:21;6.50;99.90
18773;DHT22;9515;50.810;4.418;2023-01-16T00:23:54;6.40;99.90
18773;DHT22;9515;50.810;4.418;2023-01-16T00:26:20;6.40;99.90
18773;DHT22;9515;50.810;4.418;2023-01-16T00:28:46;6.30;99.90
18773;DHT22;9515;50.810;4.418;2023-01-16T00:31:12;6.40;99.90
18773;DHT22;9515;50.810;4.418;2023-01-16T00:33:37;6.30;99.90
18773;DHT22;9515;50.810;4.418;2023-01-16T00:36:03;6.10;99.90
18773;DHT22;9515;50.810;4.418;2023-01-16T00:38:29;6.10;99.90
18773;DHT22;9515;50.810;4.418;2023-01-16T00:40:55;6.10;99.90
18773;DHT22;9515;50.810;4.418;2023-01-16T00:43:21;5.80;99.90
18773;DHT22;9515;50.810;4.418;2023-01-16T00:45:47;5.70;99.90
18773;DHT22;9515;50.810;4.418;2023-01-16T00:48:12;5.80;99.90
18773;DHT22;9515;50.810;4.418;2023-01-16T00:50:39;5.70;99.90
18773;DHT22;9515;50.810;4.418;2023-01-16T00:53:04;5.90;99.90
18773;DHT22;9515;50.810;4.418;2023-01-16T00:55:33;5.80;99.90
18773;DHT22;9515;50.810;4.418;2023-01-16T00:57:59;5.80;99.90
18773;DHT22;9515;50.810;4.418;2023-01-16T01:00:24;6.00;99.90
18773;DHT22;9515;50.810;4.418;2023-01-16T01:02:51;6.20;99.90
18773;DHT22;9515;50.810;4.418;2023-01-16T01:05:17;6.00;99.90
18773;DHT22;9515;50.810;4.418;2023-01-16T01:07:43;6.00;99.90
18773;DHT22;9515;50.810;4.418;2023-01-16T01:10:09;6.10;99.90
18773;DHT22;9515;50.810;4.418;2023-01-16T01:12:35;6.20;99.90
18773;DHT22;9515;50.810;4.418;2023-01-16T01:15:01;6.30;99.90
18773;DHT22;9515;50.810;4.418;2023-01-16T01:17:26;6.30;99.90
18773;DHT22;9515;50.810;4.418;2023-01-16T01:19:52;6.30;99.90
18773;DHT22;9515;50.810;4.418;2023-01-16T01:22:17;6.40;99.90
18773;DHT22;9515;50.810;4.418;2023-01-16T01:24:47;6.60;99.90
18773;DHT22;9515;50.810;4.418;2023-01-16T01:27:13;6.60;99.90
18773;DHT22;9515;50.810;4.418;2023-01-16T01:29:39;6.50;99.90
18773;DHT22;9515;50.810;4.418;2023-01-16T01:32:04;6.80;99.90
18773;DHT22;9515;50.810;4.418;2023-01-16T01:34:32;6.80;99.90
18773;DHT22;9515;50.810;4.418;2023-01-16T01:37:03;6.80;99.90
18773;DHT22;9515;50.810;4.418;2023-01-16T01:39:29;6.60;99.90
18773;DHT22;9515;50.810;4.418;2023-01-16T01:41:56;6.70;99.90
18773;DHT22;9515;50.810;4.418;2023-01-16T01:44:54;6.70;99.90
18773;DHT22;9515;50.810;4.418;2023-01-16T01:47:26;6.90;99.90
18773;DHT22;9515;50.810;4.418;2023-01-16T01:49:53;6.80;99.90
18773;DHT22;9515;50.810;4.418;2023-01-16T01:52:21;6.90;99.90
18773;DHT22;9515;50.810;4.418;2023-01-16T01:54:53;7.10;99.90
18773;DHT22;9515;50.810;4.418;2023-01-16T02:00:00;7.10;99.90
18773;DHT22;9515;50.810;4.418;2023-01-16T02:02:31;7.30;99.90
18773;DHT22;9515;50.810;4.418;2023-01-16T02:04:58;7.50;99.90
18773;DHT22;9515;50.810;4.418;2023-01-16T02:07:26;7.50;99.90
18773;DHT22;9515;50.810;4.418;2023-01-16T02:09:56;7.50;99.90
18773;DHT22;9515;50.810;4.418;2023-01-16T02:12:24;7.50;99.90
18773;DHT22;9515;50.810;4.418;2023-01-16T02:14:52;7.10;99.90
18773;DHT22;9515;50.810;4.418;2023-01-16T02:17:20;6.90;99.90
18773;DHT22;9515;50.810;4.418;2023-01-16T02:20:22;7.00;99.90
18773;DHT22;9515;50.810;4.418;2023-01-16T02:31:46;6.70;99.90
18773;DHT22;9515;50.810;4.418;2023-01-16T02:40:02;7.10;99.90
18773;DHT22;9515;50.810;4.418;2023-01-16T02:42:44;7.10;99.90
18773;DHT22;9515;50.810;4.418;2023-01-16T02:53:19;7.20;99.90
18773;DHT22;9515;50.810;4.418;2023-01-16T02:55:54;7.10;99.90
18773;DHT22;9515;50.810;4.418;2023-01-16T02:58:24;7.30;99.90
18773;DHT22;9515;50.810;4.418;2023-01-16T03:00:57;7.40;99.90
18773;DHT22;9515;50.810;4.418;2023-01-16T03:09:05;7.20;99.90
18773;DHT22;9515;50.810;4.418;2023-01-16T03:11:52;7.20;99.90
18773;DHT22;9515;50.810;4.418;2023-01-16T03:14:38;7.20;99.90
18773;DHT22;9515;50.810;4.418;2023-01-16T03:22:38;7.20;99.90
18773;DHT22;9515;50.810;4.418;2023-01-16T03:27:55;7.20;99.90
18773;DHT22;9515;50.810;4.418;2023-01-16T03:35:51;7.30;99.90
18773;DHT22;9515;50.810;4.418;2023-01-16T03:38:20;7.20;99.90
18773;DHT22;9515;50.810;4.418;2023-01-16T03:40:47;7.10;99.90
18773;DHT22;9515;50.810;4.418;2023-01-16T03:43:21;7.30;99.90
18773;DHT22;9515;50.810;4.418;2023-01-16T03:48:23;7.40;99.90
18773;DHT22;9515;50.810;4.418;2023-01-16T03:50:57;7.30;99.90
18773;DHT22;9515;50.810;4.418;2023-01-16T03:53:28;7.30;99.90
18773;DHT22;9515;50.810;4.418;2023-01-16T03:56:30;7.60;99.90
18773;DHT22;9515;50.810;4.418;2023-01-16T03:58:57;7.70;99.90
18773;DHT22;9515;50.810;4.418;2023-01-16T04:01:37;7.40;99.90
18773;DHT22;9515;50.810;4.418;2023-01-16T04:04:29;7.20;99.90
18773;DHT22;9515;50.810;4.418;2023-01-16T04:07:12;7.10;99.90
18773;DHT22;9515;50.810;4.418;2023-01-16T04:09:58;7.30;99.90
18773;DHT22;9515;50.810;4.418;2023-01-16T04:12:36;7.30;99.90
18773;DHT22;9515;50.810;4.418;2023-01-16T04:15:07;7.20;99.90
18773;DHT22;9515;50.810;4.418;2023-01-16T04:17:34;7.20;99.90
18773;DHT22;9515;50.810;4.418;2023-01-16T04:20:01;7.20;99.90
18773;DHT22;9515;50.810;4.418;2023-01-16T04:22:29;7.20;99.90
18773;DHT22;9515;50.810;4.418;2023-01-16T04:25:00;7.20;99.90
18773;DHT22;9515;50.810;4.418;2023-01-16T04:27:26;7.10;99.90
18773;DHT22;9515;50.810;4.418;2023-01-16T04:29:52;7.00;99.90
18773;DHT22;9515;50.810;4.418;2023-01-16T04:32:18;7.10;99.90
18773;DHT22;9515;50.810;4.418;2023-01-16T04:34:44;7.00;99.90
18773;DHT22;9515;50.810;4.418;2023-01-16T04:37:13;7.00;99.90
18773;DHT22;9515;50.810;4.418;2023-01-16T04:39:39;7.00;99.90
18773;DHT22;9515;50.810;4.418;2023-01-16T04:42:06;6.80;99.90
18773;DHT22;9515;50.810;4.418;2023-01-16T04:44:32;6.80;99.90
18773;DHT22;9515;50.810;4.418;2023-01-16T04:46:58;6.80;99.90
18773;DHT22;9515;50.810;4.418;2023-01-16T04:49:24;6.90;99.90
18773;DHT22;9515;50.810;4.418;2023-01-16T04:51:49;6.90;99.90
18773;DHT22;9515;50.810;4.418;2023-01-16T04:54:17;7.00;99.90
18773;DHT22;9515;50.810;4.418;2023-01-16T04:56:43;6.90;99.90
18773;DHT22;9515;50.810;4.418;2023-01-16T04:59:09;6.80;99.90
18773;DHT22;9515;50.810;4.418;2023-01-16T05:01:35;6.80;99.90
18773;DHT22;9515;50.810;4.418;2023-01-16T05:04:03;6.90;99.90
18773;DHT22;9515;50.810;4.418;2023-01-16T05:06:30;7.00;99.90
18773;DHT22;9515;50.810;4.418;2023-01-16T05:08:55;6.90;99.90
18773;DHT22;9515;50.810;4.418;2023-01-16T05:11:21;7.00;99.90
18773;DHT22;9515;50.810;4.418;2023-01-16T05:13:47;6.70;99.90
18773;DHT22;9515;50.810;4.418;2023-01-16T05:16:12;6.70;99.90
18773;DHT22;9515;50.810;4.418;2023-01-16T05:18:38;6.70;99.90
18773;DHT22;9515;50.810;4.418;2023-01-16T05:21:04;6.70;99.90
18773;DHT22;9515;50.810;4.418;2023-01-16T05:23:33;6.70;99.90
18773;DHT22;9515;50.810;4.418;2023-01-16T05:26:00;6.50;99.90
18773;DHT22;9515;50.810;4.418;2023-01-16T05:28:26;6.50;99.90
18773;DHT22;9515;50.810;4.418;2023-01-16T05:30:52;6.50;99.90
18773;DHT22;9515;50.810;4.418;2023-01-16T05:33:18;6.40;99.90
18773;DHT22;9515;50.810;4.418;2023-01-16T05:35:47;6.30;99.90
18773;DHT22;9515;50.810;4.418;2023-01-16T05:38:16;6.40;99.90
18773;DHT22;9515;50.810;4.418;2023-01-16T05:40:43;6.40;99.90
18773;DHT22;9515;50.810;4.418;2023-01-16T05:43:09;6.30;99.90
18773;DHT22;9515;50.810;4.418;2023-01-16T05:45:35;6.20;99.90
18773;DHT22;9515;50.810;4.418;2023-01-16T05:48:01;6.20;99.90
18773;DHT22;9515;50.810;4.418;2023-01-16T05:50:26;6.10;99.90
18773;DHT22;9515;50.810;4.418;2023-01-16T05:52:52;6.20;99.90
18773;DHT22;9515;50.810;4.418;2023-01-16T05:55:18;6.10;99.90
18773;DHT22;9515;50.810;4.418;2023-01-16T05:57:44;6.10;99.90
18773;DHT22;9515;50.810;4.418;2023-01-16T06:00:10;5.90;99.90
18773;DHT22;9515;50.810;4.418;2023-01-16T06:02:36;5.90;99.90
18773;DHT22;9515;50.810;4.418;2023-01-16T06:05:02;5.80;99.90
18773;DHT22;9515;50.810;4.418;2023-01-16T06:07:28;5.80;99.90
18773;DHT22;9515;50.810;4.418;2023-01-16T06:09:53;5.80;99.90
18773;DHT22;9515;50.810;4.418;2023-01-16T06:12:19;6.00;99.90
18773;DHT22;9515;50.810;4.418;2023-01-16T06:14:45;6.10;99.90
18773;DHT22;9515;50.810;4.418;2023-01-16T06:17:12;6.10;99.90
18773;DHT22;9515;50.810;4.418;2023-01-16T06:19:42;6.10;99.90
18773;DHT22;9515;50.810;4.418;2023-01-16T06:22:07;6.10;99.90
18773;DHT22;9515;50.810;4.418;2023-01-16T06:24:33;6.00;99.90
18773;DHT22;9515;50.810;4.418;2023-01-16T06:26:59;6.00;99.90
18773;DHT22;9515;50.810;4.418;2023-01-16T06:29:24;5.90;99.90
18773;DHT22;9515;50.810;4.418;2023-01-16T06:31:50;5.80;99.90
18773;DHT22;9515;50.810;4.418;2023-01-16T06:34:16;5.80;99.90
18773;DHT22;9515;50.810;4.418;2023-01-16T06:36:41;5.80;99.90
18773;DHT22;9515;50.810;4.418;2023-01-16T06:39:10;5.80;99.90
18773;DHT22;9515;50.810;4.418;2023-01-16T06:41:35;5.70;99.90
18773;DHT22;9515;50.810;4.418;2023-01-16T06:44:01;5.80;99.90
18773;DHT22;9515;50.810;4.418;2023-01-16T06:46:27;5.80;99.90
18773;DHT22;9515;50.810;4.418;2023-01-16T06:48:52;5.90;99.90
18773;DHT22;9515;50.810;4.418;2023-01-16T06:51:18;5.80;99.90
18773;DHT22;9515;50.810;4.418;2023-01-16T06:53:43;5.80;99.90
18773;DHT22;9515;50.810;4.418;2023-01-16T06:56:09;5.80;99.90
18773;DHT22;9515;50.810;4.418;2023-01-16T06:58:35;5.90;99.90
18773;DHT22;9515;50.810;4.418;2023-01-16T07:01:00;5.80;99.90
18773;DHT22;9515;50.810;4.418;2023-01-16T07:03:26;5.80;99.90
18773;DHT22;9515;50.810;4.418;2023-01-16T07:05:52;5.70;99.90
18773;DHT22;9515;50.810;4.418;2023-01-16T07:08:17;5.80;99.90
18773;DHT22;9515;50.810;4.418;2023-01-16T07:10:43;5.60;99.90
18773;DHT22;9515;50.810;4.418;2023-01-16T07:13:08;5.60;99.90
18773;DHT22;9515;50.810;4.418;2023-01-16T07:15:36;5.50;99.90
18773;DHT22;9515;50.810;4.418;2023-01-16T07:18:20;5.40;99.90
18773;DHT22;9515;50.810;4.418;2023-01-16T07:21:10;5.40;99.90
18773;DHT22;9515;50.810;4.418;2023-01-16T07:24:07;5.50;99.90
18773;DHT22;9515;50.810;4.418;2023-01-16T07:26:35;5.50;99.90
18773;DHT22;9515;50.810;4.418;2023-01-16T07:29:03;5.60;99.90
18773;DHT22;9515;50.810;4.418;2023-01-16T07:31:31;5.50;99.90
18773;DHT22;9515;50.810;4.418;2023-01-16T07:33:58;5.40;99.90
18773;DHT22;9515;50.810;4.418;2023-01-16T07:36:23;5.40;99.90
18773;DHT22;9515;50.810;4.418;2023-01-16T07:38:49;5.50;99.90
18773;DHT22;9515;50.810;4.418;2023-01-16T07:41:15;5.50;99.90
18773;DHT22;9515;50.810;4.418;2023-01-16T07:43:41;5.60;99.90
18773;DHT22;9515;50.810;4.418;2023-01-16T07:46:06;5.70;99.90
18773;DHT22;9515;50.810;4.418;2023-01-16T07:48:32;5.50;99.90
18773;DHT22;9515;50.810;4.418;2023-01-16T07:50:59;5.60;99.90
18773;DHT22;9515;50.810;4.418;2023-01-16T07:53:27;5.50;99.90
18773;DHT22;9515;50.810;4.418;2023-01-16T07:55:56;5.50;99.90
18773;DHT22;9515;50.810;4.418;2023-01-16T07:58:22;5.40;99.90
18773;DHT22;9515;50.810;4.418;2023-01-16T08:00:48;5.40;99.90
18773;DHT22;9515;50.810;4.418;2023-01-16T08:03:14;5.50;99.90
18773;DHT22;9515;50.810;4.418;2023-01-16T08:05:41;5.50;99.90
18773;DHT22;9515;50.810;4.418;2023-01-16T08:08:09;5.50;99.90
18773;DHT22;9515;50.810;4.418;2023-01-16T08:10:35;5.60;99.90
18773;DHT22;9515;50.810;4.418;2023-01-16T08:13:00;5.70;99.90
18773;DHT22;9515;50.810;4.418;2023-01-16T08:15:26;5.80;99.90
18773;DHT22;9515;50.810;4.418;2023-01-16T08:17:52;6.00;99.90
18773;DHT22;9515;50.810;4.418;2023-01-16T08:20:18;6.00;99.90
18773;DHT22;9515;50.810;4.418;2023-01-16T08:22:48;6.20;99.90
18773;DHT22;9515;50.810;4.418;2023-01-16T08:25:18;6.20;99.90
18773;DHT22;9515;50.810;4.418;2023-01-16T08:27:44;6.20;99.90
18773;DHT22;9515;50.810;4.418;2023-01-16T08:30:10;6.30;99.90
18773;DHT22;9515;50.810;4.418;2023-01-16T08:32:36;6.20;99.90
18773;DHT22;9515;50.810;4.418;2023-01-16T08:35:02;6.20;99.90
18773;DHT22;9515;50.810;4.418;2023-01-16T08:37:31;6.30;99.90
18773;DHT22;9515;50.810;4.418;2023-01-16T08:39:57;6.30;99.90
18773;DHT22;9515;50.810;4.418;2023-01-16T08:42:23;6.50;99.90
18773;DHT22;9515;50.810;4.418;2023-01-16T08:45:11;6.30;99.90
18773;DHT22;9515;50.810;4.418;2023-01-16T08:47:56;6.40;99.90
18773;DHT22;9515;50.810;4.418;2023-01-16T08:50:42;6.60;99.90
18773;DHT22;9515;50.810;4.418;2023-01-16T08:53:27;6.70;99.90
18773;DHT22;9515;50.810;4.418;2023-01-16T08:55:52;6.50;99.90
18773;DHT22;9515;50.810;4.418;2023-01-16T08:58:18;6.50;99.90
18773;DHT22;9515;50.810;4.418;2023-01-16T09:00:46;6.40;99.90
18773;DHT22;9515;50.810;4.418;2023-01-16T09:03:12;6.30;99.90
18773;DHT22;9515;50.810;4.418;2023-01-16T09:05:38;6.20;99.90
18773;DHT22;9515;50.810;4.418;2023-01-16T09:08:04;6.10;99.90
18773;DHT22;9515;50.810;4.418;2023-01-16T09:10:29;6.40;99.90
18773;DHT22;9515;50.810;4.418;2023-01-16T09:12:56;6.30;99.90
18773;DHT22;9515;50.810;4.418;2023-01-16T09:15:41;6.50;99.90
18773;DHT22;9515;50.810;4.418;2023-01-16T09:18:07;6.70;99.90
18773;DHT22;9515;50.810;4.418;2023-01-16T09:20:33;6.60;99.90
18773;DHT22;9515;50.810;4.418;2023-01-16T09:23:00;7.00;99.90
18773;DHT22;9515;50.810;4.418;2023-01-16T09:25:27;7.10;99.90
18773;DHT22;9515;50.810;4.418;2023-01-16T09:27:52;6.90;99.90
18773;DHT22;9515;50.810;4.418;2023-01-16T09:30:18;6.90;99.90
18773;DHT22;9515;50.810;4.418;2023-01-16T09:32:45;7.00;99.90
18773;DHT22;9515;50.810;4.418;2023-01-16T09:35:11;6.90;99.90
18773;DHT22;9515;50.810;4.418;2023-01-16T09:37:37;7.00;99.90
18773;DHT22;9515;50.810;4.418;2023-01-16T09:40:03;7.10;99.90
18773;DHT22;9515;50.810;4.418;2023-01-16T09:45:43;6.90;99.90
18773;DHT22;9515;50.810;4.418;2023-01-16T09:48:19;7.00;99.90
18773;DHT22;9515;50.810;4.418;2023-01-16T09:50:52;6.80;99.90
18773;DHT22;9515;50.810;4.418;2023-01-16T09:53:33;6.70;99.90
18773;DHT22;9515;50.810;4.418;2023-01-16T09:56:18;6.90;99.90
18773;DHT22;9515;50.810;4.418;2023-01-16T09:59:29;7.20;99.90
18773;DHT22;9515;50.810;4.418;2023-01-16T10:01:58;7.30;99.90
18773;DHT22;9515;50.810;4.418;2023-01-16T10:04:25;7.50;99.90
18773;DHT22;9515;50.810;4.418;2023-01-16T10:12:18;7.10;99.90
18773;DHT22;9515;50.810;4.418;2023-01-16T10:25:49;6.90;99.90
18773;DHT22;9515;50.810;4.418;2023-01-16T10:31:21;6.70;99.90
18773;DHT22;9515;50.810;4.418;2023-01-16T10:33:58;6.50;99.90
18773;DHT22;9515;50.810;4.418;2023-01-16T10:36:31;6.50;99.90
18773;DHT22;9515;50.810;4.418;2023-01-16T10:38:59;6.70;99.90
18773;DHT22;9515;50.810;4.418;2023-01-16T10:41:27;6.90;99.90
18773;DHT22;9515;50.810;4.418;2023-01-16T10:44:36;6.70;99.90
18773;DHT22;9515;50.810;4.418;2023-01-16T10:47:35;6.50;99.90
18773;DHT22;9515;50.810;4.418;2023-01-16T10:50:21;6.60;99.90
18773;DHT22;9515;50.810;4.418;2023-01-16T10:52:49;6.50;99.90
18773;DHT22;9515;50.810;4.418;2023-01-16T10:55:15;6.50;99.90
18773;DHT22;9515;50.810;4.418;2023-01-16T10:57:49;6.50;99.90
18773;DHT22;9515;50.810;4.418;2023-01-16T11:00:17;6.40;99.90
18773;DHT22;9515;50.810;4.418;2023-01-16T11:02:46;6.50;99.90
18773;DHT22;9515;50.810;4.418;2023-01-16T11:05:33;6.40;99.90
18773;DHT22;9515;50.810;4.418;2023-01-16T11:08:10;6.60;99.90
18773;DHT22;9515;50.810;4.418;2023-01-16T11:10:39;6.70;99.90
18773;DHT22;9515;50.810;4.418;2023-01-16T11:13:05;6.90;99.90
18773;DHT22;9515;50.810;4.418;2023-01-16T11:16:03;7.10;99.90
18773;DHT22;9515;50.810;4.418;2023-01-16T11:18:48;7.10;99.90
18773;DHT22;9515;50.810;4.418;2023-01-16T11:21:32;7.10;99.90
18773;DHT22;9515;50.810;4.418;2023-01-16T11:24:02;6.70;99.90
18773;DHT22;9515;50.810;4.418;2023-01-16T11:26:29;6.70;99.90
18773;DHT22;9515;50.810;4.418;2023-01-16T11:28:56;7.00;99.90
18773;DHT22;9515;50.810;4.418;2023-01-16T11:31:27;7.10;99.90
18773;DHT22;9515;50.810;4.418;2023-01-16T11:34:02;7.40;99.90
18773;DHT22;9515;50.810;4.418;2023-01-16T11:36:34;7.30;99.90
18773;DHT22;9515;50.810;4.418;2023-01-16T11:39:01;7.10;99.90
18773;DHT22;9515;50.810;4.418;2023-01-16T11:41:31;6.90;99.90
18773;DHT22;9515;50.810;4.418;2023-01-16T11:44:18;7.00;99.90
18773;DHT22;9515;50.810;4.418;2023-01-16T11:47:03;7.00;99.90
18773;DHT22;9515;50.810;4.418;2023-01-16T11:49:45;7.10;99.90
18773;DHT22;9515;50.810;4.418;2023-01-16T11:52:18;7.20;99.90
18773;DHT22;9515;50.810;4.418;2023-01-16T11:54:58;7.40;99.90
18773;DHT22;9515;50.810;4.418;2023-01-16T11:57:33;7.50;99.90
18773;DHT22;9515;50.810;4.418;2023-01-16T12:00:06;7.50;99.90
18773;DHT22;9515;50.810;4.418;2023-01-16T12:08:33;7.30;99.90
18773;DHT22;9515;50.810;4.418;2023-01-16T12:11:53;7.40;99.90
18773;DHT22;9515;50.810;4.418;2023-01-16T12:20:17;7.10;99.90
18773;DHT22;9515;50.810;4.418;2023-01-16T12:22:59;7.20;99.90
18773;DHT22;9515;50.810;4.418;2023-01-16T12:36:40;7.50;99.90
18773;DHT22;9515;50.810;4.418;2023-01-16T12:50:53;8.50;99.90
18773;DHT22;9515;50.810;4.418;2023-01-16T12:58:46;7.90;99.90
18773;DHT22;9515;50.810;4.418;2023-01-16T13:01:17;8.00;99.90
18773;DHT22;9515;50.810;4.418;2023-01-16T13:03:57;7.60;99.90
18773;DHT22;9515;50.810;4.418;2023-01-16T13:06:57;7.70;99.90
18773;DHT22;9515;50.810;4.418;2023-01-16T13:09:28;7.40;99.90
18773;DHT22;9515;50.810;4.418;2023-01-16T13:15:13;7.10;99.90
18773;DHT22;9515;50.810;4.418;2023-01-16T13:17:50;6.90;99.90
18773;DHT22;9515;50.810;4.418;2023-01-16T13:20:19;6.90;99.90
18773;DHT22;9515;50.810;4.418;2023-01-16T13:22:58;7.00;99.90
18773;DHT22;9515;50.810;4.418;2023-01-16T13:25:44;7.40;99.90
18773;DHT22;9515;50.810;4.418;2023-01-16T13:30:42;7.80;99.90
18773;DHT22;9515;50.810;4.418;2023-01-16T13:33:10;7.80;99.90
18773;DHT22;9515;50.810;4.418;2023-01-16T13:41:00;8.10;99.90
18773;DHT22;9515;50.810;4.418;2023-01-16T13:43:38;8.30;99.90
18773;DHT22;9515;50.810;4.418;2023-01-16T13:46:24;8.30;99.90
18773;DHT22;9515;50.810;4.418;2023-01-16T13:48:52;8.60;99.90
18773;DHT22;9515;50.810;4.418;2023-01-16T13:51:21;8.50;99.90
18773;DHT22;9515;50.810;4.418;2023-01-16T13:53:56;8.20;99.90
18773;DHT22;9515;50.810;4.418;2023-01-16T13:56:25;8.40;99.90
18773;DHT22;9515;50.810;4.418;2023-01-16T13:58:59;8.70;99.90
18773;DHT22;9515;50.810;4.418;2023-01-16T14:06:48;8.90;99.90
18773;DHT22;9515;50.810;4.418;2023-01-16T14:17:11;8.90;99.90
18773;DHT22;9515;50.810;4.418;2023-01-16T14:20:01;8.70;99.90
18773;DHT22;9515;50.810;4.418;2023-01-16T14:22:40;8.60;99.90
18773;DHT22;9515;50.810;4.418;2023-01-16T14:25:28;8.60;99.90
18773;DHT22;9515;50.810;4.418;2023-01-16T14:27:54;8.60;99.90
18773;DHT22;9515;50.810;4.418;2023-01-16T14:30:24;8.50;99.90
18773;DHT22;9515;50.810;4.418;2023-01-16T14:32:54;8.10;99.90
18773;DHT22;9515;50.810;4.418;2023-01-16T14:35:27;8.10;99.90
18773;DHT22;9515;50.810;4.418;2023-01-16T14:40:39;7.70;99.90
18773;DHT22;9515;50.810;4.418;2023-01-16T14:43:32;7.70;99.90
18773;DHT22;9515;50.810;4.418;2023-01-16T14:49:38;7.50;99.90
18773;DHT22;9515;50.810;4.418;2023-01-16T14:55:50;8.00;99.90
18773;DHT22;9515;50.810;4.418;2023-01-16T14:58:36;8.10;99.90
18773;DHT22;9515;50.810;4.418;2023-01-16T15:01:05;7.90;99.90
18773;DHT22;9515;50.810;4.418;2023-01-16T15:03:51;8.00;99.90
18773;DHT22;9515;50.810;4.418;2023-01-16T15:06:17;8.10;99.90
18773;DHT22;9515;50.810;4.418;2023-01-16T15:08:44;8.40;99.90
18773;DHT22;9515;50.810;4.418;2023-01-16T15:11:22;7.80;99.90
18773;DHT22;9515;50.810;4.418;2023-01-16T15:14:16;7.80;99.90
18773;DHT22;9515;50.810;4.418;2023-01-16T15:17:21;7.90;99.90
18773;DHT22;9515;50.810;4.418;2023-01-16T15:22:57;7.60;99.90
18773;DHT22;9515;50.810;4.418;2023-01-16T15:28:27;7.30;99.90
18773;DHT22;9515;50.810;4.418;2023-01-16T15:31:00;7.40;99.90
18773;DHT22;9515;50.810;4.418;2023-01-16T15:33:29;7.40;99.90
18773;DHT22;9515;50.810;4.418;2023-01-16T15:36:46;7.40;99.90
18773;DHT22;9515;50.810;4.418;2023-01-16T15:42:03;7.20;99.90
18773;DHT22;9515;50.810;4.418;2023-01-16T15:44:49;7.20;99.90
18773;DHT22;9515;50.810;4.418;2023-01-16T15:47:43;7.00;99.90
18773;DHT22;9515;50.810;4.418;2023-01-16T15:51:18;7.00;99.90
18773;DHT22;9515;50.810;4.418;2023-01-16T15:53:12;6.80;99.90
18773;DHT22;9515;50.810;4.418;2023-01-16T15:55:48;6.70;99.90
18773;DHT22;9515;50.810;4.418;2023-01-16T15:58:18;6.70;99.90
18773;DHT22;9515;50.810;4.418;2023-01-16T16:00:52;6.80;99.90
18773;DHT22;9515;50.810;4.418;2023-01-16T16:03:20;6.90;99.90
18773;DHT22;9515;50.810;4.418;2023-01-16T16:05:52;6.80;99.90
18773;DHT22;9515;50.810;4.418;2023-01-16T16:08:21;6.70;99.90
18773;DHT22;9515;50.810;4.418;2023-01-16T16:10:47;6.70;99.90
18773;DHT22;9515;50.810;4.418;2023-01-16T16:13:32;6.60;99.90
18773;DHT22;9515;50.810;4.418;2023-01-16T16:16:00;6.50;99.90
18773;DHT22;9515;50.810;4.418;2023-01-16T16:18:59;6.40;99.90
18773;DHT22;9515;50.810;4.418;2023-01-16T16:21:46;6.50;99.90
18773;DHT22;9515;50.810;4.418;2023-01-16T16:24:37;6.60;99.90
18773;DHT22;9515;50.810;4.418;2023-01-16T16:27:05;6.70;99.90
18773;DHT22;9515;50.810;4.418;2023-01-16T16:29:32;6.60;99.90
18773;DHT22;9515;50.810;4.418;2023-01-16T16:32:02;6.60;99.90
18773;DHT22;9515;50.810;4.418;2023-01-16T16:34:28;6.70;99.90
18773;DHT22;9515;50.810;4.418;2023-01-16T16:36:57;6.80;99.90
18773;DHT22;9515;50.810;4.418;2023-01-16T16:39:45;6.80;99.90
18773;DHT22;9515;50.810;4.418;2023-01-16T16:47:35;6.70;99.90
18773;DHT22;9515;50.810;4.418;2023-01-16T16:50:10;6.80;99.90
18773;DHT22;9515;50.810;4.418;2023-01-16T16:52:48;6.80;99.90
18773;DHT22;9515;50.810;4.418;2023-01-16T16:55:43;6.60;99.90
18773;DHT22;9515;50.810;4.418;2023-01-16T16:58:16;6.70;99.90
18773;DHT22;9515;50.810;4.418;2023-01-16T17:00:43;6.80;99.90
18773;DHT22;9515;50.810;4.418;2023-01-16T17:03:15;6.80;99.90
18773;DHT22;9515;50.810;4.418;2023-01-16T17:05:42;7.00;99.90
18773;DHT22;9515;50.810;4.418;2023-01-16T17:08:14;7.00;99.90
18773;DHT22;9515;50.810;4.418;2023-01-16T17:10:40;7.10;99.90
18773;DHT22;9515;50.810;4.418;2023-01-16T17:13:09;6.70;99.90
18773;DHT22;9515;50.810;4.418;2023-01-16T17:15:36;6.70;99.90
18773;DHT22;9515;50.810;4.418;2023-01-16T17:18:01;6.70;99.90
18773;DHT22;9515;50.810;4.418;2023-01-16T17:20:27;6.70;99.90
18773;DHT22;9515;50.810;4.418;2023-01-16T17:22:53;6.60;99.90
18773;DHT22;9515;50.810;4.418;2023-01-16T17:25:20;6.80;99.90
18773;DHT22;9515;50.810;4.418;2023-01-16T17:27:54;6.90;99.90
18773;DHT22;9515;50.810;4.418;2023-01-16T17:30:21;6.90;99.90
18773;DHT22;9515;50.810;4.418;2023-01-16T17:32:55;6.80;99.90
18773;DHT22;9515;50.810;4.418;2023-01-16T17:35:21;6.90;99.90
18773;DHT22;9515;50.810;4.418;2023-01-16T17:37:47;6.80;99.90
18773;DHT22;9515;50.810;4.418;2023-01-16T17:40:13;6.70;99.90
18773;DHT22;9515;50.810;4.418;2023-01-16T17:42:39;6.80;99.90
18773;DHT22;9515;50.810;4.418;2023-01-16T17:45:33;6.70;99.90
18773;DHT22;9515;50.810;4.418;2023-01-16T17:48:19;6.60;99.90
18773;DHT22;9515;50.810;4.418;2023-01-16T17:50:46;6.70;99.90
18773;DHT22;9515;50.810;4.418;2023-01-16T17:53:14;6.50;99.90
18773;DHT22;9515;50.810;4.418;2023-01-16T17:55:40;6.30;99.90
18773;DHT22;9515;50.810;4.418;2023-01-16T17:58:23;6.10;99.90
18773;DHT22;9515;50.810;4.418;2023-01-16T18:00:56;6.10;99.90
18773;DHT22;9515;50.810;4.418;2023-01-16T18:03:22;5.80;99.90
18773;DHT22;9515;50.810;4.418;2023-01-16T18:05:48;5.80;99.90
18773;DHT22;9515;50.810;4.418;2023-01-16T18:08:15;5.50;99.90
18773;DHT22;9515;50.810;4.418;2023-01-16T18:10:41;5.40;99.90
18773;DHT22;9515;50.810;4.418;2023-01-16T18:13:09;5.40;99.90
18773;DHT22;9515;50.810;4.418;2023-01-16T18:15:54;5.30;99.90
18773;DHT22;9515;50.810;4.418;2023-01-16T18:18:46;5.40;99.90
18773;DHT22;9515;50.810;4.418;2023-01-16T18:21:12;5.50;99.90
18773;DHT22;9515;50.810;4.418;2023-01-16T18:23:57;5.60;99.90
18773;DHT22;9515;50.810;4.418;2023-01-16T18:26:23;5.60;99.90
18773;DHT22;9515;50.810;4.418;2023-01-16T18:28:49;5.70;99.90
18773;DHT22;9515;50.810;4.418;2023-01-16T18:31:19;5.80;99.90
18773;DHT22;9515;50.810;4.418;2023-01-16T18:33:45;6.00;99.90
18773;DHT22;9515;50.810;4.418;2023-01-16T18:36:12;5.90;99.90
18773;DHT22;9515;50.810;4.418;2023-01-16T18:38:38;5.90;99.90
18773;DHT22;9515;50.810;4.418;2023-01-16T18:41:22;6.10;99.90
18773;DHT22;9515;50.810;4.418;2023-01-16T18:44:07;6.20;99.90
18773;DHT22;9515;50.810;4.418;2023-01-16T18:46:51;6.30;99.90
18773;DHT22;9515;50.810;4.418;2023-01-16T18:49:35;6.10;99.90
18773;DHT22;9515;50.810;4.418;2023-01-16T18:52:19;6.00;99.90
18773;DHT22;9515;50.810;4.418;2023-01-16T18:55:10;6.10;99.90
18773;DHT22;9515;50.810;4.418;2023-01-16T18:58:11;6.20;99.90
18773;DHT22;9515;50.810;4.418;2023-01-16T19:00:55;6.40;99.90
18773;DHT22;9515;50.810;4.418;2023-01-16T19:03:39;6.00;99.90
18773;DHT22;9515;50.810;4.418;2023-01-16T19:06:05;6.00;99.90
18773;DHT22;9515;50.810;4.418;2023-01-16T19:08:30;5.80;99.90
18773;DHT22;9515;50.810;4.418;2023-01-16T19:10:56;5.90;99.90